createdAt,value
2018-06-02T00:00:48.198Z,90.83
2018-06-02T00:03:23.271Z,91.52
2018-06-02T00:05:57.997Z,92.24
2018-06-02T00:08:32.962Z,93.03
2018-06-02T00:11:07.764Z,93.83
2018-06-02T00:13:42.751Z,93.86
2018-06-02T00:16:17.523Z,93.96
2018-06-02T00:18:52.249Z,94.11
2018-06-02T00:21:26.972Z,94.12
2018-06-02T00:24:01.714Z,93.92
2018-06-02T00:26:36.808Z,93.75
2018-06-02T00:29:11.653Z,93.90
2018-06-02T00:31:46.613Z,94.15
2018-06-02T00:34:21.534Z,94.52
2018-06-02T00:36:56.352Z,94.89
2018-06-02T00:39:31.187Z,95.36
2018-06-02T00:42:05.798Z,95.56
2018-06-02T00:44:40.923Z,95.83
2018-06-02T00:47:15.813Z,95.71
2018-06-02T00:49:50.935Z,95.68
2018-06-02T00:52:25.775Z,95.73
2018-06-02T00:55:06.941Z,95.18
2018-06-02T00:57:41.374Z,95.16
2018-06-02T01:00:16.294Z,95.72
2018-06-02T01:02:50.674Z,96.07
2018-06-02T01:05:25.566Z,96.25
2018-06-02T01:08:00.216Z,96.29
2018-06-02T01:10:35.514Z,96.43
2018-06-02T01:13:10.249Z,96.32
2018-06-02T01:15:45.061Z,96.45
2018-06-02T01:18:19.958Z,96.38
2018-06-02T01:20:54.816Z,96.73
2018-06-02T01:23:30.113Z,96.92
2018-06-02T01:26:05.033Z,96.97
2018-06-02T01:28:39.518Z,97.03
2018-06-02T01:31:14.382Z,96.61
2018-06-02T01:33:49.114Z,96.36
2018-06-02T01:36:24.017Z,96.18
2018-06-02T01:38:58.756Z,96.15
2018-06-02T01:41:33.484Z,96.16
2018-06-02T01:44:08.318Z,96.25
2018-06-02T01:46:42.825Z,96.50
2018-06-02T01:49:18.076Z,96.65
2018-06-02T01:51:52.950Z,96.43
2018-06-02T01:54:27.858Z,96.00
2018-06-02T01:57:02.577Z,96.11
2018-06-02T01:59:37.313Z,96.20
2018-06-02T02:02:12.029Z,95.95
2018-06-02T02:04:46.865Z,96.63
2018-06-02T02:07:21.851Z,95.85
2018-06-02T02:09:56.563Z,95.48
2018-06-02T02:12:31.755Z,95.22
2018-06-02T02:15:07.011Z,95.32
2018-06-02T02:17:42.018Z,95.64
2018-06-02T02:20:16.778Z,95.59
2018-06-02T02:22:51.813Z,95.71
2018-06-02T02:25:26.774Z,95.96
2018-06-02T02:28:01.683Z,95.88
2018-06-02T02:30:36.295Z,96.05
2018-06-02T02:33:11.301Z,96.04
2018-06-02T02:35:46.190Z,96.37
2018-06-02T02:38:21.106Z,96.23
2018-06-02T02:40:55.820Z,95.94
2018-06-02T02:43:30.873Z,95.67
2018-06-02T02:46:05.423Z,95.87
2018-06-02T02:48:40.530Z,95.76
2018-06-02T02:51:15.386Z,96.08
2018-06-02T02:53:50.110Z,96.49
2018-06-02T02:56:25.249Z,96.55
2018-06-02T02:59:00.270Z,96.43
2018-06-02T03:01:35.301Z,96.41
2018-06-02T03:04:10.029Z,96.36
2018-06-02T03:06:44.859Z,96.56
2018-06-02T03:09:19.685Z,96.46
2018-06-02T03:11:54.414Z,96.49
2018-06-02T03:14:29.458Z,96.72
2018-06-02T03:17:04.042Z,96.06
2018-06-02T03:19:39.221Z,95.93
2018-06-02T03:22:14.257Z,95.95
2018-06-02T03:24:49.246Z,95.63
2018-06-02T03:27:24.049Z,95.48
2018-06-02T03:29:58.673Z,95.83
2018-06-02T03:32:33.610Z,95.29
2018-06-02T03:35:08.607Z,94.98
2018-06-02T03:37:43.329Z,95.04
2018-06-02T03:40:18.172Z,95.30
2018-06-02T03:42:52.801Z,95.44
2018-06-02T03:45:27.543Z,95.23
2018-06-02T03:48:02.462Z,94.98
2018-06-02T03:50:37.238Z,94.81
2018-06-02T03:53:12.064Z,94.29
2018-06-02T03:55:46.647Z,94.49
2018-06-02T03:58:21.422Z,94.77
2018-06-02T04:00:56.216Z,94.87
2018-06-02T04:03:31.517Z,95.04
2018-06-02T04:06:05.386Z,95.48
2018-06-02T04:08:40.458Z,94.92
2018-06-02T04:11:15.524Z,94.85
2018-06-02T04:13:50.005Z,94.80
2018-06-02T04:16:25.002Z,94.98
2018-06-02T04:18:59.849Z,94.99
2018-06-02T04:21:34.606Z,94.86
2018-06-02T04:24:09.693Z,94.72
2018-06-02T04:26:44.514Z,94.91
2018-06-02T04:29:19.411Z,94.96
2018-06-02T04:31:54.077Z,95.31
2018-06-02T04:34:28.995Z,95.61
2018-06-02T04:37:03.873Z,95.70
2018-06-02T04:39:38.532Z,95.92
2018-06-02T04:42:13.280Z,95.40
2018-06-02T04:44:47.834Z,95.39
2018-06-02T04:47:22.645Z,95.81
2018-06-02T04:49:57.423Z,95.59
2018-06-02T04:52:32.274Z,95.66
2018-06-02T04:55:07.006Z,95.63
2018-06-02T04:57:41.970Z,95.31
2018-06-02T05:00:16.525Z,95.37
2018-06-02T05:02:51.330Z,94.91
2018-06-02T05:05:26.261Z,94.50
2018-06-02T05:08:01.305Z,94.47
2018-06-02T05:10:36.094Z,94.56
2018-06-02T05:13:10.957Z,94.95
2018-06-02T05:15:45.770Z,95.42
2018-06-02T05:18:20.750Z,95.47
2018-06-02T05:20:55.678Z,95.19
2018-06-02T05:23:30.473Z,94.67
2018-06-02T05:26:05.386Z,95.00
2018-06-02T05:28:40.064Z,94.85
2018-06-02T05:31:14.970Z,94.75
2018-06-02T05:33:50.019Z,94.90
2018-06-02T05:36:24.947Z,94.61
2018-06-02T05:38:59.769Z,94.68
2018-06-02T05:41:34.710Z,94.77
2018-06-02T05:44:09.560Z,94.75
2018-06-02T05:46:44.472Z,94.47
2018-06-02T05:49:19.270Z,94.24
2018-06-02T05:51:54.147Z,94.60
2018-06-02T05:54:29.099Z,94.17
2018-06-02T05:57:03.878Z,94.25
2018-06-02T05:59:38.954Z,93.94
2018-06-02T06:02:13.868Z,94.16
2018-06-02T06:04:48.591Z,94.50
2018-06-02T06:07:23.546Z,93.78
2018-06-02T06:09:58.549Z,93.67
2018-06-02T06:12:33.206Z,93.18
2018-06-02T06:15:08.149Z,93.42
2018-06-02T06:17:42.966Z,93.57
2018-06-02T06:20:17.612Z,94.01
2018-06-02T06:22:52.774Z,93.85
2018-06-02T06:25:27.746Z,94.21
2018-06-02T06:28:02.767Z,93.56
2018-06-02T06:30:37.502Z,93.17
2018-06-02T06:33:12.577Z,92.73
2018-06-02T06:35:47.513Z,92.42
2018-06-02T06:38:22.328Z,92.41
2018-06-02T06:40:57.006Z,92.65
2018-06-02T06:43:31.908Z,92.82
2018-06-02T06:46:06.919Z,93.34
2018-06-02T06:48:41.817Z,92.64
2018-06-02T06:51:16.577Z,92.88
2018-06-02T06:53:51.414Z,93.34
2018-06-02T06:56:26.325Z,93.24
2018-06-02T06:59:01.691Z,92.78
2018-06-02T07:01:36.119Z,92.77
2018-06-02T07:04:10.963Z,92.54
2018-06-02T07:06:45.564Z,92.41
2018-06-02T07:09:20.326Z,92.26
2018-06-02T07:11:55.131Z,92.34
2018-06-02T07:14:29.959Z,92.33
2018-06-02T07:17:04.602Z,90.51
2018-06-02T07:19:39.554Z,90.15
2018-06-02T07:22:14.137Z,90.41
2018-06-02T07:24:49.440Z,90.57
2018-06-02T07:27:24.154Z,90.83
2018-06-02T07:29:59.122Z,91.25
2018-06-02T07:32:34.082Z,90.88
2018-06-02T07:35:09.133Z,89.45
2018-06-02T07:37:44.166Z,89.03
2018-06-02T07:40:19.016Z,89.41
2018-06-02T07:42:53.950Z,89.03
2018-06-02T07:45:28.654Z,89.01
2018-06-02T07:48:03.733Z,89.06
2018-06-02T07:50:38.630Z,88.82
2018-06-02T07:53:13.658Z,89.15
2018-06-02T07:55:48.410Z,89.73
2018-06-02T07:58:23.493Z,90.41
2018-06-02T08:00:58.266Z,89.79
2018-06-02T08:03:32.981Z,89.93
2018-06-02T08:06:07.730Z,89.37
2018-06-02T08:08:42.579Z,89.34
2018-06-02T08:11:17.417Z,88.76
2018-06-02T08:13:52.101Z,88.56
2018-06-02T08:16:26.927Z,88.65
2018-06-02T08:19:01.791Z,88.82
2018-06-02T08:21:36.713Z,88.05
2018-06-02T08:24:15.684Z,88.07
2018-06-02T08:26:50.441Z,87.39
2018-06-02T08:29:25.388Z,86.88
2018-06-02T08:32:00.103Z,87.76
2018-06-02T08:34:35.049Z,87.68
2018-06-02T08:37:09.761Z,87.01
2018-06-02T08:39:44.541Z,86.94
2018-06-02T08:42:19.371Z,87.12
2018-06-02T08:44:54.093Z,87.60
2018-06-02T08:47:28.785Z,87.01
2018-06-02T08:50:03.951Z,87.20
2018-06-02T08:52:38.864Z,87.94
2018-06-02T08:55:13.900Z,89.21
2018-06-02T08:57:48.942Z,88.50
2018-06-02T09:00:23.898Z,88.85
2018-06-02T09:02:58.774Z,88.62
2018-06-02T09:05:33.626Z,87.80
2018-06-02T09:08:08.348Z,87.23
2018-06-02T09:10:43.435Z,87.90
2018-06-02T09:13:18.133Z,88.82
2018-06-02T09:15:52.974Z,88.08
2018-06-02T09:18:28.553Z,88.02
2018-06-02T09:21:03.450Z,87.93
2018-06-02T09:23:38.238Z,87.67
2018-06-02T09:26:13.102Z,87.50
2018-06-02T09:28:48.060Z,88.22
2018-06-02T09:31:22.690Z,88.99
2018-06-02T09:33:57.502Z,88.70
2018-06-02T09:36:32.374Z,89.03
2018-06-02T09:39:06.662Z,88.82
2018-06-02T09:41:41.994Z,89.37
2018-06-02T09:44:17.093Z,89.46
2018-06-02T09:46:53.332Z,89.39
2018-06-02T09:49:27.917Z,90.38
2018-06-02T09:52:02.715Z,89.98
2018-06-02T09:54:37.573Z,89.10
2018-06-02T09:57:12.213Z,89.28
2018-06-02T09:59:47.042Z,88.98
2018-06-02T10:02:21.963Z,88.47
2018-06-02T10:04:57.026Z,88.98
2018-06-02T10:07:32.053Z,89.93
2018-06-02T10:10:06.759Z,90.51
2018-06-02T10:12:41.692Z,90.36
2018-06-02T10:15:16.610Z,90.77
2018-06-02T10:17:51.585Z,90.98
2018-06-02T10:20:26.622Z,90.68
2018-06-02T10:23:01.099Z,90.77
2018-06-02T10:25:36.378Z,91.22
2018-06-02T10:28:11.157Z,91.50
2018-06-02T10:30:45.958Z,91.86
2018-06-02T10:33:20.775Z,91.29
2018-06-02T10:35:55.694Z,90.66
2018-06-02T10:38:30.482Z,89.36
2018-06-02T10:41:05.354Z,89.43
2018-06-02T10:43:40.271Z,88.65
2018-06-02T10:46:15.034Z,88.22
2018-06-02T10:48:49.867Z,88.27
2018-06-02T10:51:24.633Z,89.21
2018-06-02T10:53:59.727Z,89.40
2018-06-02T10:56:34.449Z,90.28
2018-06-02T10:59:09.065Z,90.98
2018-06-02T11:01:44.057Z,90.16
2018-06-02T11:04:18.825Z,90.34
2018-06-02T11:06:53.466Z,90.60
2018-06-02T11:09:28.481Z,90.54
2018-06-02T11:12:03.138Z,90.65
2018-06-02T11:14:38.053Z,90.55
2018-06-02T11:17:13.014Z,90.16
2018-06-02T11:19:47.817Z,89.39
2018-06-02T11:22:22.552Z,88.69
2018-06-02T11:24:57.493Z,89.12
2018-06-02T11:27:32.315Z,89.94
2018-06-02T11:30:07.566Z,89.49
2018-06-02T11:32:42.290Z,89.91
2018-06-02T11:35:17.122Z,89.96
2018-06-02T11:37:51.955Z,89.82
2018-06-02T11:40:26.798Z,89.61
2018-06-02T11:43:01.605Z,89.05
2018-06-02T11:45:36.655Z,88.02
2018-06-02T11:48:11.586Z,87.98
2018-06-02T11:50:46.762Z,87.79
2018-06-02T11:53:21.538Z,88.14
2018-06-02T11:55:56.278Z,88.31
2018-06-02T11:58:31.175Z,88.27
2018-06-02T12:01:06.259Z,88.04
2018-06-02T12:03:41.081Z,87.12
2018-06-02T12:06:15.918Z,87.45
2018-06-02T12:08:50.621Z,87.81
2018-06-02T12:11:26.005Z,87.54
2018-06-02T12:14:00.858Z,87.07
2018-06-02T12:16:35.565Z,87.50
2018-06-02T12:19:10.287Z,87.62
2018-06-02T12:21:45.214Z,87.55
2018-06-02T12:24:20.023Z,87.31
2018-06-02T12:26:55.469Z,86.86
2018-06-02T12:29:30.434Z,86.53
2018-06-02T12:32:05.246Z,86.39
2018-06-02T12:34:40.224Z,86.17
2018-06-02T12:37:14.626Z,86.16
2018-06-02T12:39:49.637Z,86.02
2018-06-02T12:42:24.471Z,86.33
2018-06-02T12:44:59.482Z,86.87
2018-06-02T12:47:34.322Z,87.28
2018-06-02T12:50:09.337Z,85.69
2018-06-02T12:52:44.200Z,85.92
2018-06-02T12:55:19.211Z,85.46
2018-06-02T12:57:54.266Z,85.60
2018-06-02T13:00:29.003Z,85.36
2018-06-02T13:03:03.847Z,85.34
2018-06-02T13:05:38.662Z,85.22
2018-06-02T13:08:13.349Z,84.81
2018-06-02T13:10:48.370Z,85.12
2018-06-02T13:13:23.362Z,85.01
2018-06-02T13:15:58.114Z,84.23
2018-06-02T13:18:32.949Z,84.60
2018-06-02T13:21:07.799Z,85.24
2018-06-02T13:23:42.669Z,84.95
2018-06-02T13:26:17.430Z,85.28
2018-06-02T13:28:52.450Z,85.31
2018-06-02T13:31:27.205Z,85.25
2018-06-02T13:34:02.210Z,85.74
2018-06-02T13:36:37.149Z,85.61
2018-06-02T13:39:11.794Z,85.47
2018-06-02T13:41:46.790Z,85.53
2018-06-02T13:44:21.648Z,86.00
2018-06-02T13:46:56.369Z,85.23
2018-06-02T13:49:31.087Z,83.78
2018-06-02T13:52:05.698Z,83.39
2018-06-02T13:54:40.765Z,83.07
2018-06-02T13:57:15.848Z,82.41
2018-06-02T13:59:50.626Z,82.16
2018-06-02T14:02:25.465Z,81.58
2018-06-02T14:05:00.406Z,81.71
2018-06-02T14:07:35.456Z,81.99
2018-06-02T14:10:10.428Z,82.78
2018-06-02T14:12:45.408Z,81.84
2018-06-02T14:15:20.349Z,81.29
2018-06-02T14:17:55.070Z,81.08
2018-06-02T14:20:30.305Z,81.75
2018-06-02T14:23:06.691Z,81.41
2018-06-02T14:25:41.716Z,81.17
2018-06-02T14:28:18.404Z,80.99
2018-06-02T14:30:59.166Z,80.21
2018-06-02T14:33:35.582Z,80.15
2018-06-02T14:36:12.018Z,80.15
2018-06-02T14:38:46.996Z,79.41
2018-06-02T14:41:22.098Z,79.81
2018-06-02T14:43:57.006Z,79.99
2018-06-02T14:46:31.745Z,79.26
2018-06-02T14:49:06.565Z,78.90
2018-06-02T14:51:41.778Z,78.97
2018-06-02T14:54:18.199Z,79.10
2018-06-02T14:56:53.654Z,79.34
2018-06-02T14:59:28.525Z,79.50
2018-06-02T15:04:42.994Z,79.03
2018-06-02T15:07:18.499Z,79.06
2018-06-02T15:09:53.325Z,79.48
2018-06-02T15:12:28.213Z,79.80
2018-06-02T15:15:03.544Z,79.80
2018-06-02T15:17:38.523Z,80.17
2018-06-02T15:20:13.425Z,79.16
2018-06-02T15:22:48.231Z,79.04
2018-06-02T15:25:23.248Z,79.85
2018-06-02T15:27:57.945Z,80.25
2018-06-02T15:30:34.464Z,80.04
2018-06-02T15:33:12.706Z,80.00
2018-06-02T15:35:56.423Z,80.26
2018-06-02T15:38:31.885Z,80.89
2018-06-02T15:41:12.859Z,81.03
2018-06-02T15:43:47.858Z,80.91
2018-06-02T15:46:22.582Z,81.22
2018-06-02T15:48:57.630Z,81.07
2018-06-02T15:51:34.136Z,80.77
2018-06-02T15:54:09.887Z,80.84
2018-06-02T15:56:45.202Z,80.85
2018-06-02T15:59:21.183Z,80.75
2018-06-02T16:01:55.869Z,80.87
2018-06-02T16:07:20.678Z,78.69
2018-06-02T16:09:59.407Z,78.72
2018-06-02T16:12:35.261Z,78.80
2018-06-02T16:17:55.742Z,77.49
2018-06-02T16:20:31.428Z,77.49
2018-06-02T16:23:11.840Z,77.26
2018-06-02T16:25:46.608Z,76.58
2018-06-02T16:28:23.076Z,76.78
2018-06-02T16:30:58.332Z,76.60
2018-06-02T16:33:38.391Z,75.79
2018-06-02T16:36:16.838Z,76.35
2018-06-02T16:38:58.258Z,76.53
2018-06-02T16:41:39.527Z,76.95
2018-06-02T16:44:14.627Z,76.97
2018-06-02T16:47:02.357Z,77.12
2018-06-02T16:49:40.261Z,77.48
2018-06-02T16:52:31.234Z,77.10
2018-06-02T16:55:08.666Z,77.73
2018-06-02T16:57:57.553Z,78.35
2018-06-02T17:00:34.912Z,78.68
2018-06-02T17:05:54.124Z,79.27
2018-06-02T17:08:29.366Z,79.49
2018-06-02T17:11:07.124Z,79.78
2018-06-02T17:13:42.392Z,79.70
2018-06-02T17:16:17.047Z,79.90
2018-06-02T17:18:53.283Z,80.01
2018-06-02T17:21:35.128Z,80.26
2018-06-02T17:24:12.541Z,80.61
2018-06-02T17:26:49.569Z,81.31
2018-06-02T17:32:27.273Z,82.06
2018-06-02T17:35:06.766Z,82.34
2018-06-02T17:40:40.401Z,82.65
2018-06-02T17:43:15.312Z,82.90
2018-06-02T17:45:53.608Z,83.28
2018-06-02T17:48:32.881Z,83.56
2018-06-02T17:57:06.258Z,84.06
2018-06-02T17:59:41.190Z,84.06
2018-06-02T18:02:15.941Z,83.88
2018-06-02T18:04:50.778Z,83.78
2018-06-02T18:07:25.723Z,83.50
2018-06-02T18:10:00.439Z,83.51
2018-06-02T18:12:35.174Z,83.74
2018-06-02T18:15:09.994Z,84.15
2018-06-02T18:17:44.729Z,84.96
2018-06-02T18:20:19.573Z,85.44
2018-06-02T18:22:54.400Z,86.13
2018-06-02T18:25:29.110Z,86.66
2018-06-02T18:28:03.855Z,87.17
2018-06-02T18:30:38.685Z,87.30
2018-06-02T18:33:13.691Z,87.85
2018-06-02T18:35:48.618Z,88.23
2018-06-02T18:38:23.495Z,88.61
2018-06-02T18:40:58.396Z,88.49
2018-06-02T18:43:33.237Z,88.41
2018-06-02T18:46:08.437Z,88.48
2018-06-02T18:48:43.119Z,88.48
2018-06-02T18:51:17.941Z,88.54
2018-06-02T18:53:52.741Z,88.52
2018-06-02T18:56:27.508Z,88.46
2018-06-02T18:59:02.219Z,88.42
2018-06-02T19:01:37.067Z,88.41
2018-06-02T19:04:11.988Z,88.32
2018-06-02T19:06:46.610Z,88.27
2018-06-02T19:09:21.565Z,88.14
2018-06-02T19:11:56.802Z,87.90
2018-06-02T19:14:31.470Z,87.80
2018-06-02T19:17:06.210Z,87.87
2018-06-02T19:19:41.081Z,87.80
2018-06-02T19:22:16.009Z,87.78
2018-06-02T19:24:50.769Z,87.86
2018-06-02T19:27:25.582Z,87.91
2018-06-02T19:30:00.386Z,88.00
2018-06-02T19:32:35.218Z,88.10
2018-06-02T19:35:09.766Z,88.24
2018-06-02T19:37:44.406Z,88.36
2018-06-02T19:40:19.030Z,88.44
2018-06-02T19:42:53.740Z,88.46
2018-06-02T19:45:28.375Z,88.61
2018-06-02T19:48:03.178Z,88.82
2018-06-02T19:50:38.176Z,89.10
2018-06-02T19:53:12.942Z,89.29
2018-06-02T19:55:47.797Z,89.84
2018-06-02T19:58:22.524Z,88.85
2018-06-02T20:00:57.458Z,87.46
2018-06-02T20:03:32.287Z,86.37
2018-06-02T20:06:07.107Z,85.45
2018-06-02T20:08:41.837Z,84.50
2018-06-02T20:11:16.559Z,83.89
2018-06-02T20:13:51.526Z,83.65
2018-06-02T20:16:26.450Z,83.50
2018-06-02T20:19:01.210Z,83.92
2018-06-02T20:21:36.210Z,84.12
2018-06-02T20:24:11.217Z,84.36
2018-06-02T20:26:45.979Z,84.15
2018-06-02T20:29:20.894Z,84.30
2018-06-02T20:31:55.673Z,84.34
2018-06-02T20:34:31.043Z,84.43
2018-06-02T20:37:05.542Z,84.55
2018-06-02T20:39:40.462Z,84.60
2018-06-02T20:42:15.361Z,84.56
2018-06-02T20:44:50.086Z,84.57
2018-06-02T20:47:25.030Z,84.54
2018-06-02T20:49:59.754Z,84.62
2018-06-02T20:52:34.407Z,84.74
2018-06-02T20:55:09.324Z,85.01
2018-06-02T20:57:44.047Z,85.28
2018-06-02T21:00:18.894Z,85.42
2018-06-02T21:02:53.563Z,85.68
2018-06-02T21:05:28.270Z,85.63
2018-06-02T21:08:03.070Z,85.67
2018-06-02T21:10:37.661Z,86.63
2018-06-02T21:13:12.827Z,87.30
2018-06-02T21:15:47.910Z,87.62
2018-06-02T21:18:22.787Z,87.74
2018-06-02T21:20:57.736Z,87.68
2018-06-02T21:23:32.454Z,87.64
2018-06-02T21:26:07.598Z,87.70
2018-06-02T21:28:42.270Z,87.75
2018-06-02T21:31:17.250Z,87.89
2018-06-02T21:33:52.082Z,88.10
2018-06-02T21:36:26.390Z,88.23
2018-06-02T21:39:01.406Z,88.34
2018-06-02T21:41:36.381Z,88.40
2018-06-02T21:44:11.234Z,88.42
2018-06-02T21:46:45.954Z,88.60
2018-06-02T21:49:20.830Z,88.62
2018-06-02T21:51:55.596Z,88.69
2018-06-02T21:54:30.337Z,88.82
2018-06-02T21:57:04.732Z,88.92
2018-06-02T21:59:39.915Z,89.14
2018-06-02T22:02:14.620Z,89.10
2018-06-02T22:04:48.930Z,89.19
2018-06-02T22:07:23.329Z,89.77
2018-06-02T22:09:58.403Z,89.66
2018-06-02T22:12:32.654Z,89.43
2018-06-02T22:15:07.915Z,89.25
2018-06-02T22:17:42.610Z,89.08
2018-06-02T22:20:17.450Z,89.03
2018-06-02T22:22:52.178Z,89.26
2018-06-02T22:25:27.011Z,89.64
2018-06-02T22:28:01.639Z,89.92
2018-06-02T22:30:36.361Z,90.32
2018-06-02T22:33:10.979Z,90.62
2018-06-02T22:35:45.906Z,90.86
2018-06-02T22:38:20.881Z,90.88
2018-06-02T22:40:55.739Z,90.62
2018-06-02T22:43:30.594Z,90.48
2018-06-02T22:46:05.578Z,90.29
2018-06-02T22:48:40.126Z,89.80
2018-06-02T22:51:14.514Z,89.44
2018-06-02T22:53:49.485Z,89.55
2018-06-02T22:56:23.693Z,90.03
2018-06-02T22:58:58.076Z,91.10
2018-06-02T23:01:33.189Z,92.01
2018-06-02T23:04:07.818Z,92.29
2018-06-02T23:06:42.322Z,92.58
2018-06-02T23:09:17.074Z,92.48
2018-06-02T23:11:51.891Z,92.58
2018-06-02T23:14:26.813Z,92.82
2018-06-02T23:17:01.514Z,93.14
2018-06-02T23:19:36.168Z,93.02
2018-06-02T23:22:18.307Z,92.69
2018-06-02T23:24:52.988Z,92.30
2018-06-02T23:27:27.542Z,92.45
2018-06-02T23:30:01.893Z,92.56
2018-06-02T23:32:37.036Z,93.17
2018-06-02T23:35:11.692Z,93.29
2018-06-02T23:37:46.322Z,92.91
2018-06-02T23:40:21.269Z,92.72
2018-06-02T23:42:56.029Z,92.49
2018-06-02T23:45:30.929Z,92.44
2018-06-02T23:48:05.655Z,92.66
2018-06-02T23:50:40.381Z,93.09
2018-06-02T23:53:15.330Z,92.71
2018-06-02T23:55:50.139Z,92.56
2018-06-02T23:58:25.154Z,93.06
